sensor_id;sensor_type;location;lat;lon;timestamp;pressure;altitude;pressure_sealevel;temperature
53412;BMP280;39307;52.870;13.660;2022-10-04T00:01:58;101487.38;;;12.64
53412;BMP280;39307;52.870;13.660;2022-10-04T00:04:50;101494.34;;;12.57
53412;BMP280;39307;52.870;13.660;2022-10-04T00:07:39;101496.16;;;12.57
53412;BMP280;39307;52.870;13.660;2022-10-04T00:10:30;101504.50;;;12.60
53412;BMP280;39307;52.870;13.660;2022-10-04T00:13:03;101501.50;;;12.63
53412;BMP280;39307;52.870;13.660;2022-10-04T00:15:34;101499.78;;;12.70
53412;BMP280;39307;52.870;13.660;2022-10-04T00:18:07;101511.84;;;12.65
53412;BMP280;39307;52.870;13.660;2022-10-04T00:25:52;101504.31;;;12.62
53412;BMP280;39307;52.870;13.660;2022-10-04T00:31:12;101501.50;;;12.63
53412;BMP280;39307;52.870;13.660;2022-10-04T00:33:54;101499.19;;;12.68
53412;BMP280;39307;52.870;13.660;2022-10-04T00:44:48;101484.75;;;12.64
53412;BMP280;39307;52.870;13.660;2022-10-04T00:47:30;101496.56;;;12.68
53412;BMP280;39307;52.870;13.660;2022-10-04T00:50:14;101493.28;;;12.66
53412;BMP280;39307;52.870;13.660;2022-10-04T00:52:49;101489.47;;;12.68
53412;BMP280;39307;52.870;13.660;2022-10-04T00:55:35;101485.41;;;12.66
53412;BMP280;39307;52.870;13.660;2022-10-04T00:58:06;101485.59;;;12.65
53412;BMP280;39307;52.870;13.660;2022-10-04T01:00:39;101497.44;;;12.61
53412;BMP280;39307;52.870;13.660;2022-10-04T01:03:18;101482.75;;;12.66
53412;BMP280;39307;52.870;13.660;2022-10-04T01:05:51;101482.97;;;12.65
53412;BMP280;39307;52.870;13.660;2022-10-04T01:08:30;101481.75;;;12.67
53412;BMP280;39307;52.870;13.660;2022-10-04T01:11:12;101483.47;;;12.60
53412;BMP280;39307;52.870;13.660;2022-10-04T01:13:46;101481.59;;;12.68
53412;BMP280;39307;52.870;13.660;2022-10-04T01:16:27;101481.97;;;12.66
53412;BMP280;39307;52.870;13.660;2022-10-04T01:18:54;101483.94;;;12.64
53412;BMP280;39307;52.870;13.660;2022-10-04T01:21:27;101480.50;;;12.63
53412;BMP280;39307;52.870;13.660;2022-10-04T01:29:18;101495.16;;;12.58
53412;BMP280;39307;52.870;13.660;2022-10-04T01:31:51;101492.97;;;12.61
53412;BMP280;39307;52.870;13.660;2022-10-04T01:34:23;101491.72;;;12.57
53412;BMP280;39307;52.870;13.660;2022-10-04T01:36:56;101488.28;;;12.57
53412;BMP280;39307;52.870;13.660;2022-10-04T01:39:24;101491.19;;;12.62
53412;BMP280;39307;52.870;13.660;2022-10-04T01:41:56;101489.72;;;12.59
53412;BMP280;39307;52.870;13.660;2022-10-04T01:44:38;101488.91;;;12.59
53412;BMP280;39307;52.870;13.660;2022-10-04T01:47:30;101484.63;;;12.58
53412;BMP280;39307;52.870;13.660;2022-10-04T01:50:05;101498.78;;;12.57
53412;BMP280;39307;52.870;13.660;2022-10-04T01:52:46;101488.47;;;12.55
53412;BMP280;39307;52.870;13.660;2022-10-04T01:55:22;101486.66;;;12.56
53412;BMP280;39307;52.870;13.660;2022-10-04T01:58:13;101493.53;;;12.57
53412;BMP280;39307;52.870;13.660;2022-10-04T02:00:50;101494.19;;;12.59
53412;BMP280;39307;52.870;13.660;2022-10-04T02:03:27;101489.28;;;12.56
53412;BMP280;39307;52.870;13.660;2022-10-04T02:06:00;101493.22;;;12.52
53412;BMP280;39307;52.870;13.660;2022-10-04T02:08:37;101488.31;;;12.49
53412;BMP280;39307;52.870;13.660;2022-10-04T02:11:05;101488.69;;;12.46
53412;BMP280;39307;52.870;13.660;2022-10-04T02:13:39;101487.34;;;12.50
53412;BMP280;39307;52.870;13.660;2022-10-04T02:16:10;101482.25;;;12.48
53412;BMP280;39307;52.870;13.660;2022-10-04T02:18:40;101482.63;;;12.45
53412;BMP280;39307;52.870;13.660;2022-10-04T02:21:07;101478.38;;;12.44
53412;BMP280;39307;52.870;13.660;2022-10-04T02:23:36;101482.16;;;12.42
53412;BMP280;39307;52.870;13.660;2022-10-04T02:26:07;101479.88;;;12.39
53412;BMP280;39307;52.870;13.660;2022-10-04T02:28:34;101482.81;;;12.44
53412;BMP280;39307;52.870;13.660;2022-10-04T02:31:02;101489.41;;;12.40
53412;BMP280;39307;52.870;13.660;2022-10-04T02:33:28;101484.97;;;12.40
53412;BMP280;39307;52.870;13.660;2022-10-04T02:35:55;101480.69;;;12.39
53412;BMP280;39307;52.870;13.660;2022-10-04T02:38:27;101484.16;;;12.40
53412;BMP280;39307;52.870;13.660;2022-10-04T02:41:05;101480.88;;;12.38
53412;BMP280;39307;52.870;13.660;2022-10-04T02:46:26;101480.69;;;12.39
53412;BMP280;39307;52.870;13.660;2022-10-04T02:52:00;101484.50;;;12.37
53412;BMP280;39307;52.870;13.660;2022-10-04T02:54:59;101482.84;;;12.36
53412;BMP280;39307;52.870;13.660;2022-10-04T02:57:30;101478.50;;;12.29
53412;BMP280;39307;52.870;13.660;2022-10-04T03:05:45;101472.13;;;12.23
53412;BMP280;39307;52.870;13.660;2022-10-04T03:08:13;101472.53;;;12.12
53412;BMP280;39307;52.870;13.660;2022-10-04T03:10:41;101478.28;;;12.16
53412;BMP280;39307;52.870;13.660;2022-10-04T03:13:08;101472.72;;;12.11
53412;BMP280;39307;52.870;13.660;2022-10-04T03:15:34;101476.50;;;12.09
53412;BMP280;39307;52.870;13.660;2022-10-04T03:18:01;101479.47;;;12.06
53412;BMP280;39307;52.870;13.660;2022-10-04T03:20:27;101478.00;;;12.03
53412;BMP280;39307;52.870;13.660;2022-10-04T03:22:54;101471.59;;;12.06
53412;BMP280;39307;52.870;13.660;2022-10-04T03:25:27;101481.28;;;12.05
53412;BMP280;39307;52.870;13.660;2022-10-04T03:27:58;101482.44;;;12.03
53412;BMP280;39307;52.870;13.660;2022-10-04T03:30:26;101480.81;;;12.02
53412;BMP280;39307;52.870;13.660;2022-10-04T03:32:52;101486.41;;;11.99
53412;BMP280;39307;52.870;13.660;2022-10-04T03:35:36;101479.25;;;11.93
53412;BMP280;39307;52.870;13.660;2022-10-04T03:38:06;101478.94;;;11.88
53412;BMP280;39307;52.870;13.660;2022-10-04T03:40:36;101480.06;;;11.93
53412;BMP280;39307;52.870;13.660;2022-10-04T03:43:09;101476.28;;;11.96
53412;BMP280;39307;52.870;13.660;2022-10-04T03:45:38;101474.16;;;11.91
53412;BMP280;39307;52.870;13.660;2022-10-04T03:48:11;101478.59;;;11.91
53412;BMP280;39307;52.870;13.660;2022-10-04T03:50:46;101478.94;;;11.88
53412;BMP280;39307;52.870;13.660;2022-10-04T03:53:40;101480.75;;;11.87
53412;BMP280;39307;52.870;13.660;2022-10-04T03:56:23;101492.22;;;11.86
53412;BMP280;39307;52.870;13.660;2022-10-04T03:58:51;101476.66;;;11.85
53412;BMP280;39307;52.870;13.660;2022-10-04T04:01:31;101489.16;;;11.83
53412;BMP280;39307;52.870;13.660;2022-10-04T04:06:56;101478.69;;;11.75
53412;BMP280;39307;52.870;13.660;2022-10-04T04:09:41;101478.03;;;11.73
53412;BMP280;39307;52.870;13.660;2022-10-04T04:12:22;101479.09;;;11.64
53412;BMP280;39307;52.870;13.660;2022-10-04T04:14:52;101476.63;;;11.63
53412;BMP280;39307;52.870;13.660;2022-10-04T04:19:58;101477.31;;;11.57
53412;BMP280;39307;52.870;13.660;2022-10-04T04:22:26;101481.06;;;11.54
53412;BMP280;39307;52.870;13.660;2022-10-04T04:24:53;101483.91;;;11.45
53412;BMP280;39307;52.870;13.660;2022-10-04T04:27:23;101495.06;;;11.39
53412;BMP280;39307;52.870;13.660;2022-10-04T04:29:51;101490.47;;;11.33
53412;BMP280;39307;52.870;13.660;2022-10-04T04:32:21;101497.84;;;11.30
53412;BMP280;39307;52.870;13.660;2022-10-04T04:34:51;101502.81;;;11.25
53412;BMP280;39307;52.870;13.660;2022-10-04T04:37:18;101494.94;;;11.25
53412;BMP280;39307;52.870;13.660;2022-10-04T04:39:49;101498.25;;;11.19
53412;BMP280;39307;52.870;13.660;2022-10-04T04:44:54;101504.91;;;11.22
53412;BMP280;39307;52.870;13.660;2022-10-04T04:47:33;101516.75;;;11.18
53412;BMP280;39307;52.870;13.660;2022-10-04T04:50:24;101514.97;;;11.10
53412;BMP280;39307;52.870;13.660;2022-10-04T04:52:58;101514.31;;;11.08
53412;BMP280;39307;52.870;13.660;2022-10-04T04:55:29;101510.88;;;11.08
53412;BMP280;39307;52.870;13.660;2022-10-04T04:57:58;101506.13;;;11.03
53412;BMP280;39307;52.870;13.660;2022-10-04T05:00:29;101506.44;;;11.00
53412;BMP280;39307;52.870;13.660;2022-10-04T05:02:58;101512.19;;;10.96
53412;BMP280;39307;52.870;13.660;2022-10-04T05:05:26;101513.84;;;10.89
53412;BMP280;39307;52.870;13.660;2022-10-04T05:13:30;101523.38;;;10.74
53412;BMP280;39307;52.870;13.660;2022-10-04T05:15:59;101521.88;;;10.72
53412;BMP280;39307;52.870;13.660;2022-10-04T05:18:31;101530.75;;;10.71
53412;BMP280;39307;52.870;13.660;2022-10-04T05:21:10;101531.22;;;10.66
53412;BMP280;39307;52.870;13.660;2022-10-04T05:23:37;101524.69;;;10.63
53412;BMP280;39307;52.870;13.660;2022-10-04T05:26:10;101536.28;;;10.60
53412;BMP280;39307;52.870;13.660;2022-10-04T05:28:37;101540.72;;;10.60
53412;BMP280;39307;52.870;13.660;2022-10-04T05:31:37;101535.66;;;10.58
53412;BMP280;39307;52.870;13.660;2022-10-04T05:34:14;101542.53;;;10.59
53412;BMP280;39307;52.870;13.660;2022-10-04T05:36:57;101545.78;;;10.61
53412;BMP280;39307;52.870;13.660;2022-10-04T05:42:18;101536.31;;;10.68
53412;BMP280;39307;52.870;13.660;2022-10-04T05:44:50;101537.59;;;10.72
53412;BMP280;39307;52.870;13.660;2022-10-04T05:47:18;101536.28;;;10.76
53412;BMP280;39307;52.870;13.660;2022-10-04T05:49:46;101537.94;;;10.77
53412;BMP280;39307;52.870;13.660;2022-10-04T05:52:31;101540.06;;;10.81
53412;BMP280;39307;52.870;13.660;2022-10-04T05:55:22;101539.72;;;10.84
53412;BMP280;39307;52.870;13.660;2022-10-04T06:01:12;101545.78;;;10.85
53412;BMP280;39307;52.870;13.660;2022-10-04T06:09:26;101552.81;;;10.92
53412;BMP280;39307;52.870;13.660;2022-10-04T06:12:23;101552.66;;;10.94
53412;BMP280;39307;52.870;13.660;2022-10-04T06:17:37;101549.38;;;10.99
53412;BMP280;39307;52.870;13.660;2022-10-04T06:23:18;101549.69;;;11.04
53412;BMP280;39307;52.870;13.660;2022-10-04T06:26:08;101550.19;;;11.08
53412;BMP280;39307;52.870;13.660;2022-10-04T06:28:42;101559.53;;;11.10
53412;BMP280;39307;52.870;13.660;2022-10-04T06:31:34;101554.91;;;11.12
53412;BMP280;39307;52.870;13.660;2022-10-04T06:43:49;101558.81;;;11.32
53412;BMP280;39307;52.870;13.660;2022-10-04T06:46:47;101562.28;;;11.40
53412;BMP280;39307;52.870;13.660;2022-10-04T07:00:23;101562.25;;;11.86
53412;BMP280;39307;52.870;13.660;2022-10-04T07:03:15;101568.44;;;12.01
53412;BMP280;39307;52.870;13.660;2022-10-04T07:05:53;101569.31;;;12.15
53412;BMP280;39307;52.870;13.660;2022-10-04T07:08:34;101560.81;;;12.36
53412;BMP280;39307;52.870;13.660;2022-10-04T07:24:22;101567.56;;;13.33
53412;BMP280;39307;52.870;13.660;2022-10-04T07:26:49;101564.13;;;13.32
53412;BMP280;39307;52.870;13.660;2022-10-04T07:29:38;101570.47;;;13.38
53412;BMP280;39307;52.870;13.660;2022-10-04T07:32:07;101568.00;;;13.36
53412;BMP280;39307;52.870;13.660;2022-10-04T07:34:58;101575.53;;;13.39
53412;BMP280;39307;52.870;13.660;2022-10-04T07:37:32;101571.94;;;13.40
53412;BMP280;39307;52.870;13.660;2022-10-04T07:43:10;101580.00;;;13.39
53412;BMP280;39307;52.870;13.660;2022-10-04T07:45:40;101588.69;;;13.39
53412;BMP280;39307;52.870;13.660;2022-10-04T07:48:20;101596.41;;;13.41
53412;BMP280;39307;52.870;13.660;2022-10-04T07:57:00;101597.88;;;13.57
53412;BMP280;39307;52.870;13.660;2022-10-04T08:05:08;101603.94;;;13.72
53412;BMP280;39307;52.870;13.660;2022-10-04T08:08:12;101611.84;;;13.72
53412;BMP280;39307;52.870;13.660;2022-10-04T08:14:03;101611.69;;;13.74
53412;BMP280;39307;52.870;13.660;2022-10-04T08:21:58;101627.38;;;13.82
53412;BMP280;39307;52.870;13.660;2022-10-04T08:27:38;101624.81;;;13.88
53412;BMP280;39307;52.870;13.660;2022-10-04T08:30:13;101631.16;;;13.79
53412;BMP280;39307;52.870;13.660;2022-10-04T08:32:53;101629.19;;;13.81
53412;BMP280;39307;52.870;13.660;2022-10-04T08:48:48;101640.97;;;13.85
53412;BMP280;39307;52.870;13.660;2022-10-04T09:00:10;101640.25;;;13.91
53412;BMP280;39307;52.870;13.660;2022-10-04T09:08:19;101642.19;;;14.11
53412;BMP280;39307;52.870;13.660;2022-10-04T09:11:05;101635.81;;;14.20
53412;BMP280;39307;52.870;13.660;2022-10-04T09:16:46;101629.97;;;14.24
53412;BMP280;39307;52.870;13.660;2022-10-04T09:20:21;101640.06;;;14.35
53412;BMP280;39307;52.870;13.660;2022-10-04T09:22:17;101633.59;;;14.38
53412;BMP280;39307;52.870;13.660;2022-10-04T09:27:53;101636.09;;;14.45
53412;BMP280;39307;52.870;13.660;2022-10-04T09:35:47;101626.53;;;14.59
53412;BMP280;39307;52.870;13.660;2022-10-04T09:47:43;101626.34;;;14.81
53412;BMP280;39307;52.870;13.660;2022-10-04T09:50:24;101623.22;;;14.92
53412;BMP280;39307;52.870;13.660;2022-10-04T09:59:09;101623.59;;;15.09
53412;BMP280;39307;52.870;13.660;2022-10-04T10:10:35;101623.16;;;15.54
53412;BMP280;39307;52.870;13.660;2022-10-04T10:22:07;101621.19;;;15.62
53412;BMP280;39307;52.870;13.660;2022-10-04T10:27:54;101615.63;;;15.84
53412;BMP280;39307;52.870;13.660;2022-10-04T10:30:45;101612.47;;;16.08
53412;BMP280;39307;52.870;13.660;2022-10-04T10:36:10;101606.22;;;16.15
53412;BMP280;39307;52.870;13.660;2022-10-04T10:44:22;101615.22;;;16.27
53412;BMP280;39307;52.870;13.660;2022-10-04T10:47:09;101611.19;;;16.37
53412;BMP280;39307;52.870;13.660;2022-10-04T10:52:48;101621.84;;;16.63
53412;BMP280;39307;52.870;13.660;2022-10-04T11:04:01;101618.59;;;16.74
53412;BMP280;39307;52.870;13.660;2022-10-04T11:07:02;101602.53;;;16.75
53412;BMP280;39307;52.870;13.660;2022-10-04T11:10:17;101611.28;;;16.82
53412;BMP280;39307;52.870;13.660;2022-10-04T11:15:42;101597.25;;;16.88
53412;BMP280;39307;52.870;13.660;2022-10-04T11:35:49;101577.94;;;17.38
53412;BMP280;39307;52.870;13.660;2022-10-04T11:38:50;101576.13;;;17.26
53412;BMP280;39307;52.870;13.660;2022-10-04T12:00:24;101560.38;;;17.57
53412;BMP280;39307;52.870;13.660;2022-10-04T12:14:34;101565.25;;;17.66
53412;BMP280;39307;52.870;13.660;2022-10-04T12:25:48;101564.06;;;17.49
53412;BMP280;39307;52.870;13.660;2022-10-04T12:36:25;101562.66;;;17.53
53412;BMP280;39307;52.870;13.660;2022-10-04T12:39:14;101562.22;;;17.63
53412;BMP280;39307;52.870;13.660;2022-10-04T12:44:54;101563.66;;;17.59
53412;BMP280;39307;52.870;13.660;2022-10-04T12:47:51;101560.38;;;17.57
53412;BMP280;39307;52.870;13.660;2022-10-04T13:21:44;101557.38;;;17.28
53412;BMP280;39307;52.870;13.660;2022-10-04T13:27:16;101545.38;;;17.12
53412;BMP280;39307;52.870;13.660;2022-10-04T13:30:06;101538.47;;;17.18
53412;BMP280;39307;52.870;13.660;2022-10-04T13:40:31;101525.03;;;17.32
53412;BMP280;39307;52.870;13.660;2022-10-04T13:46:08;101516.47;;;17.30
53412;BMP280;39307;52.870;13.660;2022-10-04T13:49:11;101521.16;;;17.15
53412;BMP280;39307;52.870;13.660;2022-10-04T13:54:38;101512.63;;;17.07
53412;BMP280;39307;52.870;13.660;2022-10-04T13:57:23;101508.34;;;17.12
53412;BMP280;39307;52.870;13.660;2022-10-04T14:00:04;101515.69;;;17.04
53412;BMP280;39307;52.870;13.660;2022-10-04T14:02:47;101499.78;;;16.91
53412;BMP280;39307;52.870;13.660;2022-10-04T14:08:53;101492.69;;;17.11
53412;BMP280;39307;52.870;13.660;2022-10-04T14:17:32;101496.53;;;17.02
53412;BMP280;39307;52.870;13.660;2022-10-04T14:34:51;101485.56;;;16.73
53412;BMP280;39307;52.870;13.660;2022-10-04T14:40:26;101488.63;;;16.70
53412;BMP280;39307;52.870;13.660;2022-10-04T14:43:11;101488.22;;;16.67
53412;BMP280;39307;52.870;13.660;2022-10-04T14:49:16;101481.72;;;16.63
53412;BMP280;39307;52.870;13.660;2022-10-04T14:52:14;101465.84;;;16.63
53412;BMP280;39307;52.870;13.660;2022-10-04T14:54:57;101470.13;;;16.64
53412;BMP280;39307;52.870;13.660;2022-10-04T14:57:53;101471.34;;;16.55
53412;BMP280;39307;52.870;13.660;2022-10-04T15:00:47;101470.94;;;16.45
53412;BMP280;39307;52.870;13.660;2022-10-04T15:03:45;101469.50;;;16.49
53412;BMP280;39307;52.870;13.660;2022-10-04T15:11:57;101461.38;;;16.31
53412;BMP280;39307;52.870;13.660;2022-10-04T15:14:38;101453.44;;;16.31
53412;BMP280;39307;52.870;13.660;2022-10-04T15:17:23;101451.78;;;16.17
53412;BMP280;39307;52.870;13.660;2022-10-04T15:20:28;101457.31;;;16.16
53412;BMP280;39307;52.870;13.660;2022-10-04T15:23:15;101461.16;;;16.14
53412;BMP280;39307;52.870;13.660;2022-10-04T15:31:39;101462.72;;;16.02
53412;BMP280;39307;52.870;13.660;2022-10-04T15:34:37;101461.06;;;16.01
53412;BMP280;39307;52.870;13.660;2022-10-04T15:42:22;101484.13;;;15.73
53412;BMP280;39307;52.870;13.660;2022-10-04T15:47:59;101479.44;;;15.56
53412;BMP280;39307;52.870;13.660;2022-10-04T16:01:42;101466.47;;;15.28
53412;BMP280;39307;52.870;13.660;2022-10-04T16:07:17;101463.78;;;15.15
53412;BMP280;39307;52.870;13.660;2022-10-04T16:10:00;101463.38;;;15.18
53412;BMP280;39307;52.870;13.660;2022-10-04T16:18:20;101457.13;;;14.92
53412;BMP280;39307;52.870;13.660;2022-10-04T16:23:33;101470.19;;;14.79
53412;BMP280;39307;52.870;13.660;2022-10-04T16:36:48;101451.72;;;14.52
53412;BMP280;39307;52.870;13.660;2022-10-04T16:39:38;101467.00;;;14.36
53412;BMP280;39307;52.870;13.660;2022-10-04T16:42:06;101478.13;;;14.31
53412;BMP280;39307;52.870;13.660;2022-10-04T16:44:47;101468.34;;;14.25
53412;BMP280;39307;52.870;13.660;2022-10-04T16:49:56;101460.59;;;14.03
53412;BMP280;39307;52.870;13.660;2022-10-04T16:55:22;101471.50;;;14.00
53412;BMP280;39307;52.870;13.660;2022-10-04T17:06:40;101486.41;;;13.79
53412;BMP280;39307;52.870;13.660;2022-10-04T17:15:05;101487.66;;;13.48
53412;BMP280;39307;52.870;13.660;2022-10-04T17:18:14;101499.47;;;13.38
53412;BMP280;39307;52.870;13.660;2022-10-04T17:23:28;101493.09;;;13.32
53412;BMP280;39307;52.870;13.660;2022-10-04T17:28:56;101499.28;;;13.25
53412;BMP280;39307;52.870;13.660;2022-10-04T17:31:47;101494.09;;;13.17
53412;BMP280;39307;52.870;13.660;2022-10-04T17:34:28;101496.81;;;13.09
53412;BMP280;39307;52.870;13.660;2022-10-04T17:37:15;101499.00;;;13.06
53412;BMP280;39307;52.870;13.660;2022-10-04T17:43:02;101492.72;;;12.93
53412;BMP280;39307;52.870;13.660;2022-10-04T17:45:54;101485.00;;;12.77
53412;BMP280;39307;52.870;13.660;2022-10-04T17:48:30;101483.53;;;12.74
53412;BMP280;39307;52.870;13.660;2022-10-04T17:51:44;101474.97;;;12.72
53412;BMP280;39307;52.870;13.660;2022-10-04T17:53:51;101483.69;;;12.73
53412;BMP280;39307;52.870;13.660;2022-10-04T17:57:06;101489.47;;;12.68
53412;BMP280;39307;52.870;13.660;2022-10-04T17:59:47;101475.25;;;12.63
53412;BMP280;39307;52.870;13.660;2022-10-04T18:02:45;101483.66;;;12.59
53412;BMP280;39307;52.870;13.660;2022-10-04T18:05:26;101475.34;;;12.55
53412;BMP280;39307;52.870;13.660;2022-10-04T18:13:38;101472.47;;;12.42
53412;BMP280;39307;52.870;13.660;2022-10-04T18:16:31;101473.94;;;12.45
53412;BMP280;39307;52.870;13.660;2022-10-04T18:19:40;101475.63;;;12.38
53412;BMP280;39307;52.870;13.660;2022-10-04T18:22:24;101479.25;;;12.37
53412;BMP280;39307;52.870;13.660;2022-10-04T18:25:17;101466.84;;;12.31
53412;BMP280;39307;52.870;13.660;2022-10-04T18:28:02;101468.50;;;12.24
53412;BMP280;39307;52.870;13.660;2022-10-04T18:30:29;101471.31;;;12.23
53412;BMP280;39307;52.870;13.660;2022-10-04T18:32:55;101466.94;;;12.15
53412;BMP280;39307;52.870;13.660;2022-10-04T18:35:27;101482.16;;;12.20
53412;BMP280;39307;52.870;13.660;2022-10-04T18:40:42;101469.16;;;12.04
53412;BMP280;39307;52.870;13.660;2022-10-04T18:43:28;101460.19;;;11.99
53412;BMP280;39307;52.870;13.660;2022-10-04T18:46:01;101462.59;;;12.00
53412;BMP280;39307;52.870;13.660;2022-10-04T18:48:49;101469.09;;;11.90
53412;BMP280;39307;52.870;13.660;2022-10-04T18:56:38;101471.19;;;11.94
53412;BMP280;39307;52.870;13.660;2022-10-04T18:59:16;101474.88;;;11.85
53412;BMP280;39307;52.870;13.660;2022-10-04T19:02:06;101489.31;;;11.82
53412;BMP280;39307;52.870;13.660;2022-10-04T19:04:49;101492.28;;;11.79
53412;BMP280;39307;52.870;13.660;2022-10-04T19:07:42;101479.97;;;11.79
53412;BMP280;39307;52.870;13.660;2022-10-04T19:10:22;101495.41;;;11.74
53412;BMP280;39307;52.870;13.660;2022-10-04T19:13:05;101492.59;;;11.76
53412;BMP280;39307;52.870;13.660;2022-10-04T19:15:42;101485.09;;;11.73
53412;BMP280;39307;52.870;13.660;2022-10-04T19:21:43;101482.22;;;11.60
53412;BMP280;39307;52.870;13.660;2022-10-04T19:24:34;101492.22;;;11.56
53412;BMP280;39307;52.870;13.660;2022-10-04T19:27:23;101495.19;;;11.53
53412;BMP280;39307;52.870;13.660;2022-10-04T19:35:31;101489.16;;;11.37
53412;BMP280;39307;52.870;13.660;2022-10-04T19:44:28;101498.84;;;11.29
53412;BMP280;39307;52.870;13.660;2022-10-04T19:49:37;101499.38;;;11.17
53412;BMP280;39307;52.870;13.660;2022-10-04T19:54:57;101490.88;;;11.15
53412;BMP280;39307;52.870;13.660;2022-10-04T19:57:35;101488.09;;;11.08
53412;BMP280;39307;52.870;13.660;2022-10-04T20:00:12;101486.00;;;11.04
53412;BMP280;39307;52.870;13.660;2022-10-04T20:02:42;101481.44;;;10.98
53412;BMP280;39307;52.870;13.660;2022-10-04T20:05:12;101483.38;;;10.96
53412;BMP280;39307;52.870;13.660;2022-10-04T20:07:39;101483.56;;;10.95
53412;BMP280;39307;52.870;13.660;2022-10-04T20:10:22;101480.63;;;10.90
53412;BMP280;39307;52.870;13.660;2022-10-04T20:13:05;101489.63;;;10.87
53412;BMP280;39307;52.870;13.660;2022-10-04T20:17:58;101497.81;;;10.84
53412;BMP280;39307;52.870;13.660;2022-10-04T20:23:47;101491.94;;;10.74
53412;BMP280;39307;52.870;13.660;2022-10-04T20:26:36;101492.28;;;10.71
53412;BMP280;39307;52.870;13.660;2022-10-04T20:29:03;101487.38;;;10.68
53412;BMP280;39307;52.870;13.660;2022-10-04T20:34:22;101487.19;;;10.62
53412;BMP280;39307;52.870;13.660;2022-10-04T20:36:49;101487.19;;;10.62
53412;BMP280;39307;52.870;13.660;2022-10-04T20:42:30;101472.97;;;10.57
53412;BMP280;39307;52.870;13.660;2022-10-04T20:47:53;101470.53;;;10.55
53412;BMP280;39307;52.870;13.660;2022-10-04T20:50:34;101463.00;;;10.52
53412;BMP280;39307;52.870;13.660;2022-10-04T20:53:05;101456.78;;;10.53
53412;BMP280;39307;52.870;13.660;2022-10-04T20:55:37;101451.34;;;10.55
53412;BMP280;39307;52.870;13.660;2022-10-04T20:58:28;101457.59;;;10.54
53412;BMP280;39307;52.870;13.660;2022-10-04T21:00:59;101466.09;;;10.56
53412;BMP280;39307;52.870;13.660;2022-10-04T21:03:25;101463.00;;;10.52
53412;BMP280;39307;52.870;13.660;2022-10-04T21:06:18;101477.22;;;10.50
53412;BMP280;39307;52.870;13.660;2022-10-04T21:08:44;101474.44;;;10.51
53412;BMP280;39307;52.870;13.660;2022-10-04T21:11:20;101473.81;;;10.49
53412;BMP280;39307;52.870;13.660;2022-10-04T21:16:44;101453.19;;;10.38
53412;BMP280;39307;52.870;13.660;2022-10-04T21:21:55;101450.22;;;10.34
53412;BMP280;39307;52.870;13.660;2022-10-04T21:24:40;101434.69;;;10.32
53412;BMP280;39307;52.870;13.660;2022-10-04T21:27:11;101433.06;;;10.31
53412;BMP280;39307;52.870;13.660;2022-10-04T21:29:38;101421.63;;;10.32
53412;BMP280;39307;52.870;13.660;2022-10-04T21:32:05;101432.75;;;10.34
53412;BMP280;39307;52.870;13.660;2022-10-04T21:34:31;101434.50;;;10.34
53412;BMP280;39307;52.870;13.660;2022-10-04T21:36:57;101434.50;;;10.34
53412;BMP280;39307;52.870;13.660;2022-10-04T21:39:23;101424.38;;;10.31
53412;BMP280;39307;52.870;13.660;2022-10-04T21:41:50;101425.03;;;10.33
53412;BMP280;39307;52.870;13.660;2022-10-04T21:44:16;101422.41;;;10.33
53412;BMP280;39307;52.870;13.660;2022-10-04T21:46:42;101417.38;;;10.31
53412;BMP280;39307;52.870;13.660;2022-10-04T21:49:08;101422.59;;;10.31
53412;BMP280;39307;52.870;13.660;2022-10-04T21:51:34;101417.38;;;10.31
53412;BMP280;39307;52.870;13.660;2022-10-04T21:54:06;101421.13;;;10.29
53412;BMP280;39307;52.870;13.660;2022-10-04T21:56:32;101419.31;;;10.29
53412;BMP280;39307;52.870;13.660;2022-10-04T21:58:58;101426.84;;;10.32
53412;BMP280;39307;52.870;13.660;2022-10-04T22:01:24;101427.31;;;10.36
53412;BMP280;39307;52.870;13.660;2022-10-04T22:03:50;101420.63;;;10.33
53412;BMP280;39307;52.870;13.660;2022-10-04T22:06:17;101418.47;;;10.37
53412;BMP280;39307;52.870;13.660;2022-10-04T22:08:43;101410.63;;;10.37
53412;BMP280;39307;52.870;13.660;2022-10-04T22:11:09;101411.47;;;10.37
53412;BMP280;39307;52.870;13.660;2022-10-04T22:13:36;101407.88;;;10.38
53412;BMP280;39307;52.870;13.660;2022-10-04T22:16:02;101413.91;;;10.46
53412;BMP280;39307;52.870;13.660;2022-10-04T22:18:29;101408.16;;;10.43
53412;BMP280;39307;52.870;13.660;2022-10-04T22:20:56;101405.72;;;10.41
53412;BMP280;39307;52.870;13.660;2022-10-04T22:23:25;101412.25;;;10.45
53412;BMP280;39307;52.870;13.660;2022-10-04T22:25:52;101414.06;;;10.45
53412;BMP280;39307;52.870;13.660;2022-10-04T22:28:27;101407.03;;;10.45
53412;BMP280;39307;52.870;13.660;2022-10-04T22:30:54;101401.78;;;10.45
53412;BMP280;39307;52.870;13.660;2022-10-04T22:33:31;101400.66;;;10.48
53412;BMP280;39307;52.870;13.660;2022-10-04T22:38:34;101391.47;;;10.52
53412;BMP280;39307;52.870;13.660;2022-10-04T22:41:00;101397.22;;;10.55
53412;BMP280;39307;52.870;13.660;2022-10-04T22:43:26;101388.53;;;10.55
53412;BMP280;39307;52.870;13.660;2022-10-04T22:45:53;101389.50;;;10.54
53412;BMP280;39307;52.870;13.660;2022-10-04T22:48:20;101385.41;;;10.51
53412;BMP280;39307;52.870;13.660;2022-10-04T22:50:49;101381.31;;;10.49
53412;BMP280;39307;52.870;13.660;2022-10-04T22:53:19;101380.50;;;10.48
53412;BMP280;39307;52.870;13.660;2022-10-04T22:55:47;101388.38;;;10.48
53412;BMP280;39307;52.870;13.660;2022-10-04T22:58:14;101380.38;;;10.50
53412;BMP280;39307;52.870;13.660;2022-10-04T23:00:41;101375.28;;;10.48
53412;BMP280;39307;52.870;13.660;2022-10-04T23:03:30;101377.09;;;10.48
53412;BMP280;39307;52.870;13.660;2022-10-04T23:06:01;101363.19;;;10.47